createdAt,value
2018-10-16T14:47:39.323Z,27.90
2018-10-16T14:50:08.520Z,25.80
2018-10-16T14:52:36.952Z,24.70
2018-10-16T14:55:06.896Z,24.30
2018-10-16T14:57:35.744Z,24.10
2018-10-16T15:04:03.651Z,23.60
2018-10-16T15:06:31.870Z,24.60
2018-10-16T15:09:00.348Z,25.10
2018-10-16T15:11:28.665Z,25.00
2018-10-16T15:13:56.967Z,24.80
2018-10-16T15:16:25.173Z,24.70
2018-10-16T15:18:53.435Z,24.60
2018-10-16T15:21:22.031Z,24.60
2018-10-16T15:23:50.318Z,24.60
2018-10-16T15:26:18.541Z,24.60
2018-10-16T15:28:46.799Z,24.60
2018-10-16T15:31:15.104Z,24.60
2018-10-16T15:33:43.371Z,24.60
2018-10-16T15:36:11.681Z,24.60
2018-10-16T15:38:39.934Z,24.60
2018-10-16T15:41:08.445Z,24.60
2018-10-16T15:43:36.672Z,24.60
2018-10-16T15:46:05.175Z,24.60
2018-10-16T15:48:33.508Z,24.60
2018-10-16T15:51:02.881Z,24.50
2018-10-16T15:53:31.162Z,24.50
2018-10-16T15:55:59.534Z,24.50
2018-10-16T15:58:27.838Z,24.50
2018-10-16T16:00:56.165Z,24.50
2018-10-16T16:03:24.432Z,24.50
2018-10-16T16:05:52.712Z,24.40
2018-10-16T16:08:20.939Z,24.40
2018-10-16T16:10:49.274Z,24.40
2018-10-16T16:13:17.509Z,24.40
2018-10-16T16:15:45.767Z,24.40
2018-10-16T16:18:14.063Z,24.30
2018-10-16T16:20:42.356Z,24.30
2018-10-16T16:23:10.637Z,24.30
2018-10-16T16:25:39.469Z,24.30
2018-10-16T16:28:07.723Z,24.30
2018-10-16T16:30:35.987Z,24.20
2018-10-16T16:33:04.415Z,24.20
2018-10-16T16:35:32.731Z,24.20
2018-10-16T16:38:01.070Z,24.20
2018-10-16T16:40:29.395Z,24.20
2018-10-16T16:42:57.672Z,24.20
2018-10-16T16:45:25.952Z,24.20
2018-10-16T16:47:54.280Z,24.10
2018-10-16T16:50:23.641Z,24.10
2018-10-16T16:52:51.920Z,24.10
2018-10-16T16:55:20.179Z,24.10
2018-10-16T16:57:48.431Z,24.10
2018-10-16T17:00:16.744Z,24.00
2018-10-16T17:02:45.926Z,24.00
2018-10-16T17:05:14.576Z,24.00
2018-10-16T17:07:44.593Z,24.00
2018-10-16T17:10:12.951Z,23.90
2018-10-16T17:12:41.865Z,23.90
2018-10-16T17:15:12.886Z,23.90
2018-10-16T17:17:41.319Z,23.90
2018-10-16T17:20:10.666Z,23.80
2018-10-16T17:39:24.560Z,23.70
2018-10-16T17:58:37.955Z,23.50
2018-10-16T18:17:51.960Z,23.30
2018-10-16T18:37:06.188Z,23.20
2018-10-16T18:39:34.484Z,23.20
2018-10-16T18:58:47.888Z,23.00
2018-10-16T19:14:39.924Z,22.90
2018-10-16T19:17:08.224Z,22.90
2018-10-16T19:19:36.513Z,22.90
2018-10-16T19:22:04.874Z,22.90
2018-10-16T19:24:33.139Z,22.80
2018-10-16T19:27:01.435Z,22.80
2018-10-16T19:29:29.706Z,22.80
2018-10-16T19:31:58.049Z,22.80
2018-10-16T19:34:26.335Z,22.80
2018-10-16T19:36:54.699Z,22.70
2018-10-16T19:39:22.994Z,22.80
2018-10-16T19:41:54.265Z,22.70
2018-10-16T19:44:22.503Z,22.70
2018-10-16T19:46:50.763Z,22.70
2018-10-16T19:49:19.015Z,22.70
2018-10-16T19:51:49.070Z,22.70
2018-10-16T19:54:17.344Z,22.70
2018-10-16T19:56:45.621Z,22.70
2018-10-16T19:59:13.876Z,22.60
2018-10-16T20:01:42.221Z,22.60
2018-10-16T20:04:10.543Z,22.60
2018-10-16T20:06:38.835Z,22.60
2018-10-16T20:09:09.046Z,22.60
2018-10-16T20:11:37.358Z,22.60
2018-10-16T20:14:05.752Z,22.50
2018-10-16T20:16:33.923Z,22.50
2018-10-16T20:19:02.218Z,22.50
2018-10-16T20:38:15.355Z,22.40
2018-10-16T20:57:28.361Z,22.30
2018-10-16T20:59:56.843Z,22.30
2018-10-16T21:02:25.139Z,22.30
2018-10-16T21:04:53.575Z,22.20
2018-10-16T21:24:07.005Z,22.10
2018-10-16T21:26:35.287Z,22.10
2018-10-16T21:29:03.550Z,22.10
2018-10-16T21:48:17.202Z,22.00
2018-10-16T22:07:30.186Z,21.90
2018-10-16T22:09:59.047Z,21.90
2018-10-16T22:12:27.278Z,23.20
2018-10-16T22:14:55.534Z,21.90
2018-10-16T22:17:23.778Z,21.90
2018-10-16T22:19:52.029Z,21.90
2018-10-16T22:39:08.058Z,21.80
2018-10-16T22:58:21.601Z,21.70
2018-10-16T23:17:35.686Z,21.60
2018-10-16T23:20:03.953Z,21.60
2018-10-16T23:39:17.506Z,21.50
2018-10-16T23:58:31.029Z,21.40
